sensor_id;sensor_type;location;lat;lon;timestamp;temperature;humidity
20885;DHT22;10602;48.000;9.654;2022-09-28T00:00:30;8.50;99.90
20885;DHT22;10602;48.000;9.654;2022-09-28T00:03:02;8.50;99.90
20885;DHT22;10602;48.000;9.654;2022-09-28T00:06:02;8.50;99.90
20885;DHT22;10602;48.000;9.654;2022-09-28T00:08:37;8.50;99.90
20885;DHT22;10602;48.000;9.654;2022-09-28T00:11:09;8.50;99.90
20885;DHT22;10602;48.000;9.654;2022-09-28T00:16:58;8.50;99.90
20885;DHT22;10602;48.000;9.654;2022-09-28T00:19:25;8.50;99.90
20885;DHT22;10602;48.000;9.654;2022-09-28T00:21:54;8.50;99.90
20885;DHT22;10602;48.000;9.654;2022-09-28T00:24:27;8.50;99.90
20885;DHT22;10602;48.000;9.654;2022-09-28T00:26:58;8.50;99.90
20885;DHT22;10602;48.000;9.654;2022-09-28T00:29:40;8.50;99.90
20885;DHT22;10602;48.000;9.654;2022-09-28T00:32:15;8.50;99.90
20885;DHT22;10602;48.000;9.654;2022-09-28T00:34:53;8.50;99.90
20885;DHT22;10602;48.000;9.654;2022-09-28T00:37:25;8.50;99.90
20885;DHT22;10602;48.000;9.654;2022-09-28T00:39:53;8.50;99.90
20885;DHT22;10602;48.000;9.654;2022-09-28T00:42:23;8.50;99.90
20885;DHT22;10602;48.000;9.654;2022-09-28T00:44:53;8.50;99.90
20885;DHT22;10602;48.000;9.654;2022-09-28T00:47:50;8.50;99.90
20885;DHT22;10602;48.000;9.654;2022-09-28T00:50:31;8.50;99.90
20885;DHT22;10602;48.000;9.654;2022-09-28T00:53:14;8.50;99.90
20885;DHT22;10602;48.000;9.654;2022-09-28T00:56:01;8.50;99.90
20885;DHT22;10602;48.000;9.654;2022-09-28T00:58:30;8.60;99.90
20885;DHT22;10602;48.000;9.654;2022-09-28T01:01:00;8.60;99.90
20885;DHT22;10602;48.000;9.654;2022-09-28T01:03:28;8.60;99.90
20885;DHT22;10602;48.000;9.654;2022-09-28T01:05:58;8.60;99.90
20885;DHT22;10602;48.000;9.654;2022-09-28T01:08:30;8.60;99.90
20885;DHT22;10602;48.000;9.654;2022-09-28T01:11:03;8.60;99.90
20885;DHT22;10602;48.000;9.654;2022-09-28T01:13:31;8.60;99.90
20885;DHT22;10602;48.000;9.654;2022-09-28T01:16:30;8.60;99.90
20885;DHT22;10602;48.000;9.654;2022-09-28T01:24:47;8.70;99.90
20885;DHT22;10602;48.000;9.654;2022-09-28T01:27:24;8.70;99.90
20885;DHT22;10602;48.000;9.654;2022-09-28T01:30:06;8.60;99.90
20885;DHT22;10602;48.000;9.654;2022-09-28T01:35:29;8.60;99.90
20885;DHT22;10602;48.000;9.654;2022-09-28T01:38:12;8.50;99.90
20885;DHT22;10602;48.000;9.654;2022-09-28T01:40:45;8.50;99.90
20885;DHT22;10602;48.000;9.654;2022-09-28T01:45:57;8.50;99.90
20885;DHT22;10602;48.000;9.654;2022-09-28T01:48:30;8.50;99.90
20885;DHT22;10602;48.000;9.654;2022-09-28T01:50:59;8.50;99.90
20885;DHT22;10602;48.000;9.654;2022-09-28T01:53:40;8.50;99.90
20885;DHT22;10602;48.000;9.654;2022-09-28T01:56:31;8.50;99.90
20885;DHT22;10602;48.000;9.654;2022-09-28T01:59:17;8.50;99.90
20885;DHT22;10602;48.000;9.654;2022-09-28T02:01:27;8.50;99.90
20885;DHT22;10602;48.000;9.654;2022-09-28T02:04:17;8.60;99.90
20885;DHT22;10602;48.000;9.654;2022-09-28T02:06:49;8.60;99.90
20885;DHT22;10602;48.000;9.654;2022-09-28T02:09:21;8.70;99.90
20885;DHT22;10602;48.000;9.654;2022-09-28T02:11:53;8.70;99.90
20885;DHT22;10602;48.000;9.654;2022-09-28T02:14:24;8.70;99.90
20885;DHT22;10602;48.000;9.654;2022-09-28T02:16:54;8.70;99.90
20885;DHT22;10602;48.000;9.654;2022-09-28T02:19:30;8.70;99.90
20885;DHT22;10602;48.000;9.654;2022-09-28T02:25:12;8.70;99.90
20885;DHT22;10602;48.000;9.654;2022-09-28T02:27:59;8.70;99.90
20885;DHT22;10602;48.000;9.654;2022-09-28T02:30:32;8.70;99.90
20885;DHT22;10602;48.000;9.654;2022-09-28T02:33:06;8.70;99.90
20885;DHT22;10602;48.000;9.654;2022-09-28T02:35:40;8.90;99.90
20885;DHT22;10602;48.000;9.654;2022-09-28T02:38:11;8.90;99.90
20885;DHT22;10602;48.000;9.654;2022-09-28T02:40:46;8.80;99.90
20885;DHT22;10602;48.000;9.654;2022-09-28T02:43:21;8.70;99.90
20885;DHT22;10602;48.000;9.654;2022-09-28T02:49:38;8.50;99.90
20885;DHT22;10602;48.000;9.654;2022-09-28T02:55:12;8.60;99.90
20885;DHT22;10602;48.000;9.654;2022-09-28T02:58:02;8.60;99.90
20885;DHT22;10602;48.000;9.654;2022-09-28T03:00:34;8.70;99.90
20885;DHT22;10602;48.000;9.654;2022-09-28T03:03:18;8.70;99.90
20885;DHT22;10602;48.000;9.654;2022-09-28T03:06:03;8.70;99.90
20885;DHT22;10602;48.000;9.654;2022-09-28T03:08:49;8.70;99.90
20885;DHT22;10602;48.000;9.654;2022-09-28T03:11:29;8.60;99.90
20885;DHT22;10602;48.000;9.654;2022-09-28T03:14:04;8.60;99.90
20885;DHT22;10602;48.000;9.654;2022-09-28T03:16:54;8.50;99.90
20885;DHT22;10602;48.000;9.654;2022-09-28T03:19:38;8.50;99.90
20885;DHT22;10602;48.000;9.654;2022-09-28T03:22:20;8.40;99.90
20885;DHT22;10602;48.000;9.654;2022-09-28T03:24:50;8.40;99.90
20885;DHT22;10602;48.000;9.654;2022-09-28T03:27:22;8.40;99.90
20885;DHT22;10602;48.000;9.654;2022-09-28T03:29:50;8.30;99.90
20885;DHT22;10602;48.000;9.654;2022-09-28T03:32:22;8.30;99.90
20885;DHT22;10602;48.000;9.654;2022-09-28T03:34:56;8.30;99.90
20885;DHT22;10602;48.000;9.654;2022-09-28T03:37:25;8.30;99.90
20885;DHT22;10602;48.000;9.654;2022-09-28T03:39:59;8.30;99.90
20885;DHT22;10602;48.000;9.654;2022-09-28T03:42:33;8.30;99.90
20885;DHT22;10602;48.000;9.654;2022-09-28T03:45:04;8.30;99.90
20885;DHT22;10602;48.000;9.654;2022-09-28T03:47:35;8.30;99.90
20885;DHT22;10602;48.000;9.654;2022-09-28T03:50:13;8.30;99.90
20885;DHT22;10602;48.000;9.654;2022-09-28T03:55:50;8.20;99.90
20885;DHT22;10602;48.000;9.654;2022-09-28T04:01:40;8.20;99.90
20885;DHT22;10602;48.000;9.654;2022-09-28T04:04:25;8.20;99.90
20885;DHT22;10602;48.000;9.654;2022-09-28T04:07:14;8.20;99.90
20885;DHT22;10602;48.000;9.654;2022-09-28T04:09:42;8.10;99.90
20885;DHT22;10602;48.000;9.654;2022-09-28T04:12:34;8.10;99.90
20885;DHT22;10602;48.000;9.654;2022-09-28T04:15:29;8.00;99.90
20885;DHT22;10602;48.000;9.654;2022-09-28T04:31:16;7.90;99.90
20885;DHT22;10602;48.000;9.654;2022-09-28T04:34:13;7.90;99.90
20885;DHT22;10602;48.000;9.654;2022-09-28T04:36:55;7.90;99.90
20885;DHT22;10602;48.000;9.654;2022-09-28T04:42:14;7.90;99.90
20885;DHT22;10602;48.000;9.654;2022-09-28T04:45:27;7.90;99.90
20885;DHT22;10602;48.000;9.654;2022-09-28T04:48:05;7.90;99.90
20885;DHT22;10602;48.000;9.654;2022-09-28T04:58:54;7.90;99.90
20885;DHT22;10602;48.000;9.654;2022-09-28T05:04:39;7.90;99.90
20885;DHT22;10602;48.000;9.654;2022-09-28T05:07:35;7.90;99.90
20885;DHT22;10602;48.000;9.654;2022-09-28T05:15:40;7.90;99.90
20885;DHT22;10602;48.000;9.654;2022-09-28T05:18:18;7.90;99.90
20885;DHT22;10602;48.000;9.654;2022-09-28T05:20:42;7.90;99.90
20885;DHT22;10602;48.000;9.654;2022-09-28T05:23:14;7.90;99.90
20885;DHT22;10602;48.000;9.654;2022-09-28T05:25:45;8.00;99.90
20885;DHT22;10602;48.000;9.654;2022-09-28T05:37:16;7.90;99.90
20885;DHT22;10602;48.000;9.654;2022-09-28T05:39:58;7.90;99.90
20885;DHT22;10602;48.000;9.654;2022-09-28T05:45:48;7.90;99.90
20885;DHT22;10602;48.000;9.654;2022-09-28T05:48:26;7.90;99.90
20885;DHT22;10602;48.000;9.654;2022-09-28T05:51:12;7.90;99.90
20885;DHT22;10602;48.000;9.654;2022-09-28T05:53:52;7.90;99.90
20885;DHT22;10602;48.000;9.654;2022-09-28T05:56:34;7.80;99.90
20885;DHT22;10602;48.000;9.654;2022-09-28T05:59:11;7.80;99.90
20885;DHT22;10602;48.000;9.654;2022-09-28T06:04:54;7.90;99.90
20885;DHT22;10602;48.000;9.654;2022-09-28T06:07:36;7.90;99.90
20885;DHT22;10602;48.000;9.654;2022-09-28T06:10:18;7.90;99.90
20885;DHT22;10602;48.000;9.654;2022-09-28T06:13:08;7.90;99.90
20885;DHT22;10602;48.000;9.654;2022-09-28T06:15:40;7.90;99.90
20885;DHT22;10602;48.000;9.654;2022-09-28T06:18:15;7.90;99.90
20885;DHT22;10602;48.000;9.654;2022-09-28T06:21:03;7.90;99.90
20885;DHT22;10602;48.000;9.654;2022-09-28T06:25:59;8.00;99.90
20885;DHT22;10602;48.000;9.654;2022-09-28T06:28:34;8.00;99.90
20885;DHT22;10602;48.000;9.654;2022-09-28T06:33:41;8.00;99.90
20885;DHT22;10602;48.000;9.654;2022-09-28T06:36:20;8.00;99.90
20885;DHT22;10602;48.000;9.654;2022-09-28T06:38:50;8.00;99.90
20885;DHT22;10602;48.000;9.654;2022-09-28T06:41:21;8.10;99.90
20885;DHT22;10602;48.000;9.654;2022-09-28T06:43:48;8.10;99.90
20885;DHT22;10602;48.000;9.654;2022-09-28T06:49:27;8.10;99.90
20885;DHT22;10602;48.000;9.654;2022-09-28T06:51:44;8.10;99.90
20885;DHT22;10602;48.000;9.654;2022-09-28T06:54:13;8.10;99.90
20885;DHT22;10602;48.000;9.654;2022-09-28T06:59:14;8.20;99.90
20885;DHT22;10602;48.000;9.654;2022-09-28T07:01:54;8.20;99.90
20885;DHT22;10602;48.000;9.654;2022-09-28T07:04:19;8.20;99.90
20885;DHT22;10602;48.000;9.654;2022-09-28T07:06:50;8.20;99.90
20885;DHT22;10602;48.000;9.654;2022-09-28T07:09:16;8.20;99.90
20885;DHT22;10602;48.000;9.654;2022-09-28T07:11:43;8.30;99.90
20885;DHT22;10602;48.000;9.654;2022-09-28T07:14:15;8.30;99.90
20885;DHT22;10602;48.000;9.654;2022-09-28T07:16:43;8.30;99.90
20885;DHT22;10602;48.000;9.654;2022-09-28T07:19:13;8.30;99.90
20885;DHT22;10602;48.000;9.654;2022-09-28T07:21:43;8.30;99.90
20885;DHT22;10602;48.000;9.654;2022-09-28T07:24:12;8.30;99.90
20885;DHT22;10602;48.000;9.654;2022-09-28T07:26:39;8.40;99.90
20885;DHT22;10602;48.000;9.654;2022-09-28T07:29:10;8.40;99.90
20885;DHT22;10602;48.000;9.654;2022-09-28T07:31:39;8.40;99.90
20885;DHT22;10602;48.000;9.654;2022-09-28T07:34:07;8.50;99.90
20885;DHT22;10602;48.000;9.654;2022-09-28T07:36:38;8.40;99.90
20885;DHT22;10602;48.000;9.654;2022-09-28T07:39:06;8.50;99.90
20885;DHT22;10602;48.000;9.654;2022-09-28T07:41:35;8.50;99.90
20885;DHT22;10602;48.000;9.654;2022-09-28T07:44:06;8.50;99.90
20885;DHT22;10602;48.000;9.654;2022-09-28T07:46:36;8.50;99.90
20885;DHT22;10602;48.000;9.654;2022-09-28T07:49:05;8.60;99.90
20885;DHT22;10602;48.000;9.654;2022-09-28T07:51:35;8.50;99.90
20885;DHT22;10602;48.000;9.654;2022-09-28T07:54:02;8.50;99.90
20885;DHT22;10602;48.000;9.654;2022-09-28T07:56:29;8.50;99.90
20885;DHT22;10602;48.000;9.654;2022-09-28T07:58:57;8.50;99.90
20885;DHT22;10602;48.000;9.654;2022-09-28T08:01:26;8.50;99.90
20885;DHT22;10602;48.000;9.654;2022-09-28T08:03:57;8.60;99.90
20885;DHT22;10602;48.000;9.654;2022-09-28T08:06:25;8.60;99.90
20885;DHT22;10602;48.000;9.654;2022-09-28T08:08:52;8.50;99.90
20885;DHT22;10602;48.000;9.654;2022-09-28T08:11:21;8.40;99.90
20885;DHT22;10602;48.000;9.654;2022-09-28T08:13:49;8.20;99.90
20885;DHT22;10602;48.000;9.654;2022-09-28T08:16:18;8.20;99.90
20885;DHT22;10602;48.000;9.654;2022-09-28T08:18:47;8.20;99.90
20885;DHT22;10602;48.000;9.654;2022-09-28T08:21:15;8.30;99.90
20885;DHT22;10602;48.000;9.654;2022-09-28T08:24:00;8.30;99.90
20885;DHT22;10602;48.000;9.654;2022-09-28T08:26:28;8.30;99.90
20885;DHT22;10602;48.000;9.654;2022-09-28T08:28:58;8.30;99.90
20885;DHT22;10602;48.000;9.654;2022-09-28T08:31:33;8.40;99.90
20885;DHT22;10602;48.000;9.654;2022-09-28T08:34:01;8.40;99.90
20885;DHT22;10602;48.000;9.654;2022-09-28T08:36:32;8.50;99.90
20885;DHT22;10602;48.000;9.654;2022-09-28T08:39:08;8.60;99.90
20885;DHT22;10602;48.000;9.654;2022-09-28T08:41:53;8.60;99.90
20885;DHT22;10602;48.000;9.654;2022-09-28T08:44:17;8.70;99.90
20885;DHT22;10602;48.000;9.654;2022-09-28T08:46:49;8.70;99.90
20885;DHT22;10602;48.000;9.654;2022-09-28T08:49:39;8.80;99.90
20885;DHT22;10602;48.000;9.654;2022-09-28T08:52:21;8.80;99.90
20885;DHT22;10602;48.000;9.654;2022-09-28T08:57:39;8.80;99.90
20885;DHT22;10602;48.000;9.654;2022-09-28T09:00:45;8.80;99.90
20885;DHT22;10602;48.000;9.654;2022-09-28T09:02:50;8.80;99.90
20885;DHT22;10602;48.000;9.654;2022-09-28T09:05:33;8.80;99.90
20885;DHT22;10602;48.000;9.654;2022-09-28T09:08:07;8.90;99.90
20885;DHT22;10602;48.000;9.654;2022-09-28T09:10:51;9.00;99.90
20885;DHT22;10602;48.000;9.654;2022-09-28T09:16:24;9.10;99.90
20885;DHT22;10602;48.000;9.654;2022-09-28T09:18:54;9.10;99.90
20885;DHT22;10602;48.000;9.654;2022-09-28T09:21:42;9.20;99.90
20885;DHT22;10602;48.000;9.654;2022-09-28T09:24:26;9.30;99.90
20885;DHT22;10602;48.000;9.654;2022-09-28T09:27:04;9.40;99.90
20885;DHT22;10602;48.000;9.654;2022-09-28T09:30:04;9.30;99.90
20885;DHT22;10602;48.000;9.654;2022-09-28T09:32:54;9.40;99.90
20885;DHT22;10602;48.000;9.654;2022-09-28T09:35:35;9.50;99.90
20885;DHT22;10602;48.000;9.654;2022-09-28T09:38:10;9.60;99.90
20885;DHT22;10602;48.000;9.654;2022-09-28T09:47:23;9.70;99.90
20885;DHT22;10602;48.000;9.654;2022-09-28T09:49:29;9.70;99.90
20885;DHT22;10602;48.000;9.654;2022-09-28T10:26:22;10.00;99.90
20885;DHT22;10602;48.000;9.654;2022-09-28T10:29:00;10.00;99.90
20885;DHT22;10602;48.000;9.654;2022-09-28T10:31:46;10.00;99.90
20885;DHT22;10602;48.000;9.654;2022-09-28T10:34:53;10.00;99.90
20885;DHT22;10602;48.000;9.654;2022-09-28T10:37:46;10.00;99.90
20885;DHT22;10602;48.000;9.654;2022-09-28T10:49:21;10.00;99.90
20885;DHT22;10602;48.000;9.654;2022-09-28T10:52:01;10.10;99.90
20885;DHT22;10602;48.000;9.654;2022-09-28T10:57:47;10.00;99.90
20885;DHT22;10602;48.000;9.654;2022-09-28T11:00:13;10.10;99.90
20885;DHT22;10602;48.000;9.654;2022-09-28T11:02:35;10.00;99.90
20885;DHT22;10602;48.000;9.654;2022-09-28T11:05:18;10.00;99.90
20885;DHT22;10602;48.000;9.654;2022-09-28T11:07:48;10.00;99.90
20885;DHT22;10602;48.000;9.654;2022-09-28T11:10:26;9.90;99.90
20885;DHT22;10602;48.000;9.654;2022-09-28T11:12:57;9.80;99.90
20885;DHT22;10602;48.000;9.654;2022-09-28T11:15:28;9.70;99.90
20885;DHT22;10602;48.000;9.654;2022-09-28T11:18:17;9.70;99.90
20885;DHT22;10602;48.000;9.654;2022-09-28T11:20:30;9.70;99.90
20885;DHT22;10602;48.000;9.654;2022-09-28T11:23:21;9.70;99.90
20885;DHT22;10602;48.000;9.654;2022-09-28T11:26:01;9.70;99.90
20885;DHT22;10602;48.000;9.654;2022-09-28T11:28:31;9.60;99.90
20885;DHT22;10602;48.000;9.654;2022-09-28T11:30:55;9.60;99.90
20885;DHT22;10602;48.000;9.654;2022-09-28T11:33:32;9.70;99.90
20885;DHT22;10602;48.000;9.654;2022-09-28T11:41:45;9.70;99.90
20885;DHT22;10602;48.000;9.654;2022-09-28T11:44:32;9.60;99.90
20885;DHT22;10602;48.000;9.654;2022-09-28T11:49:43;9.70;99.90
20885;DHT22;10602;48.000;9.654;2022-09-28T11:52:22;9.60;99.90
20885;DHT22;10602;48.000;9.654;2022-09-28T11:54:54;9.60;99.90
20885;DHT22;10602;48.000;9.654;2022-09-28T11:57:26;9.60;99.90
20885;DHT22;10602;48.000;9.654;2022-09-28T12:00:00;9.50;99.90
20885;DHT22;10602;48.000;9.654;2022-09-28T12:02:32;9.50;99.90
20885;DHT22;10602;48.000;9.654;2022-09-28T12:07:55;9.50;99.90
20885;DHT22;10602;48.000;9.654;2022-09-28T12:10:34;9.50;99.90
20885;DHT22;10602;48.000;9.654;2022-09-28T12:13:03;9.60;99.90
20885;DHT22;10602;48.000;9.654;2022-09-28T12:15:47;9.70;99.90
20885;DHT22;10602;48.000;9.654;2022-09-28T12:18:37;9.80;99.90
20885;DHT22;10602;48.000;9.654;2022-09-28T12:24:08;9.90;99.90
20885;DHT22;10602;48.000;9.654;2022-09-28T12:26:39;9.90;99.90
20885;DHT22;10602;48.000;9.654;2022-09-28T12:29:11;9.90;99.90
20885;DHT22;10602;48.000;9.654;2022-09-28T12:31:49;9.80;99.90
20885;DHT22;10602;48.000;9.654;2022-09-28T12:34:09;9.70;99.90
20885;DHT22;10602;48.000;9.654;2022-09-28T12:36:40;9.70;99.90
20885;DHT22;10602;48.000;9.654;2022-09-28T12:47:37;9.80;99.90
20885;DHT22;10602;48.000;9.654;2022-09-28T15:12:16;7.80;99.90
20885;DHT22;10602;48.000;9.654;2022-09-28T15:14:50;7.70;99.90
20885;DHT22;10602;48.000;9.654;2022-09-28T15:17:21;7.70;99.90
20885;DHT22;10602;48.000;9.654;2022-09-28T15:20:09;7.70;99.90
20885;DHT22;10602;48.000;9.654;2022-09-28T15:22:36;7.70;99.90
20885;DHT22;10602;48.000;9.654;2022-09-28T15:25:11;7.80;99.90
20885;DHT22;10602;48.000;9.654;2022-09-28T15:27:37;7.80;99.90
20885;DHT22;10602;48.000;9.654;2022-09-28T15:30:27;7.70;99.90
20885;DHT22;10602;48.000;9.654;2022-09-28T15:32:56;7.70;99.90
20885;DHT22;10602;48.000;9.654;2022-09-28T15:35:27;7.70;99.90
20885;DHT22;10602;48.000;9.654;2022-09-28T15:37:54;7.70;99.90
20885;DHT22;10602;48.000;9.654;2022-09-28T15:40:33;7.70;99.90
20885;DHT22;10602;48.000;9.654;2022-09-28T15:43:01;7.60;99.90
20885;DHT22;10602;48.000;9.654;2022-09-28T15:45:34;7.60;99.90
20885;DHT22;10602;48.000;9.654;2022-09-28T15:48:19;7.50;99.90
20885;DHT22;10602;48.000;9.654;2022-09-28T15:51:00;7.50;99.90
20885;DHT22;10602;48.000;9.654;2022-09-28T15:53:28;7.50;99.90
20885;DHT22;10602;48.000;9.654;2022-09-28T15:55:59;7.50;99.90
20885;DHT22;10602;48.000;9.654;2022-09-28T15:58:27;7.30;99.90
20885;DHT22;10602;48.000;9.654;2022-09-28T16:01:23;7.30;99.90
20885;DHT22;10602;48.000;9.654;2022-09-28T16:03:48;7.30;99.90
20885;DHT22;10602;48.000;9.654;2022-09-28T16:06:15;7.30;99.90
20885;DHT22;10602;48.000;9.654;2022-09-28T16:08:44;7.30;99.90
20885;DHT22;10602;48.000;9.654;2022-09-28T16:14:03;7.40;99.90
20885;DHT22;10602;48.000;9.654;2022-09-28T16:16:47;7.30;99.90
20885;DHT22;10602;48.000;9.654;2022-09-28T16:19:27;7.40;99.90
20885;DHT22;10602;48.000;9.654;2022-09-28T16:21:57;7.40;99.90
20885;DHT22;10602;48.000;9.654;2022-09-28T16:24:33;7.40;99.90
20885;DHT22;10602;48.000;9.654;2022-09-28T16:27:06;7.40;99.90
20885;DHT22;10602;48.000;9.654;2022-09-28T16:29:36;7.40;99.90
20885;DHT22;10602;48.000;9.654;2022-09-28T16:37:40;7.30;99.90
20885;DHT22;10602;48.000;9.654;2022-09-28T16:40:09;7.30;99.90
20885;DHT22;10602;48.000;9.654;2022-09-28T16:42:39;7.30;99.90
20885;DHT22;10602;48.000;9.654;2022-09-28T16:45:08;7.30;99.90
20885;DHT22;10602;48.000;9.654;2022-09-28T16:47:36;7.40;99.90
20885;DHT22;10602;48.000;9.654;2022-09-28T16:50:05;7.40;99.90
20885;DHT22;10602;48.000;9.654;2022-09-28T16:52:32;7.40;99.90
20885;DHT22;10602;48.000;9.654;2022-09-28T16:55:18;7.40;99.90
20885;DHT22;10602;48.000;9.654;2022-09-28T16:57:46;7.30;99.90
20885;DHT22;10602;48.000;9.654;2022-09-28T17:00:19;7.20;99.90
20885;DHT22;10602;48.000;9.654;2022-09-28T17:02:49;7.10;99.90
20885;DHT22;10602;48.000;9.654;2022-09-28T17:05:18;7.10;99.90
20885;DHT22;10602;48.000;9.654;2022-09-28T17:07:53;7.10;99.90
20885;DHT22;10602;48.000;9.654;2022-09-28T17:10:19;7.00;99.90
20885;DHT22;10602;48.000;9.654;2022-09-28T17:12:46;7.00;99.90
20885;DHT22;10602;48.000;9.654;2022-09-28T17:15:14;7.00;99.90
20885;DHT22;10602;48.000;9.654;2022-09-28T17:17:45;7.00;99.90
20885;DHT22;10602;48.000;9.654;2022-09-28T17:20:22;7.00;99.90
20885;DHT22;10602;48.000;9.654;2022-09-28T17:22:48;7.00;99.90
20885;DHT22;10602;48.000;9.654;2022-09-28T17:25:17;7.00;99.90
20885;DHT22;10602;48.000;9.654;2022-09-28T17:27:46;7.00;99.90
20885;DHT22;10602;48.000;9.654;2022-09-28T17:30:14;6.90;99.90
20885;DHT22;10602;48.000;9.654;2022-09-28T17:32:43;6.90;99.90
20885;DHT22;10602;48.000;9.654;2022-09-28T17:35:15;6.90;99.90
20885;DHT22;10602;48.000;9.654;2022-09-28T17:37:43;6.90;99.90
20885;DHT22;10602;48.000;9.654;2022-09-28T17:40:27;6.90;99.90
20885;DHT22;10602;48.000;9.654;2022-09-28T17:42:55;6.90;99.90
20885;DHT22;10602;48.000;9.654;2022-09-28T17:45:25;7.00;99.90
20885;DHT22;10602;48.000;9.654;2022-09-28T17:47:54;7.00;99.90
20885;DHT22;10602;48.000;9.654;2022-09-28T17:50:25;7.00;99.90
20885;DHT22;10602;48.000;9.654;2022-09-28T17:52:54;6.90;99.90
20885;DHT22;10602;48.000;9.654;2022-09-28T17:55:25;6.90;99.90
20885;DHT22;10602;48.000;9.654;2022-09-28T17:58:01;6.90;99.90
20885;DHT22;10602;48.000;9.654;2022-09-28T18:00:31;6.90;99.90
20885;DHT22;10602;48.000;9.654;2022-09-28T18:02:59;6.90;99.90
20885;DHT22;10602;48.000;9.654;2022-09-28T18:05:27;6.90;99.90
20885;DHT22;10602;48.000;9.654;2022-09-28T18:07:56;6.90;99.90
20885;DHT22;10602;48.000;9.654;2022-09-28T18:10:24;6.80;99.90
20885;DHT22;10602;48.000;9.654;2022-09-28T18:12:54;6.80;99.90
20885;DHT22;10602;48.000;9.654;2022-09-28T18:15:22;6.80;99.90
20885;DHT22;10602;48.000;9.654;2022-09-28T18:17:49;6.80;99.90
20885;DHT22;10602;48.000;9.654;2022-09-28T18:20:18;6.80;99.90
20885;DHT22;10602;48.000;9.654;2022-09-28T18:22:49;6.80;99.90
20885;DHT22;10602;48.000;9.654;2022-09-28T18:25:16;6.80;99.90
20885;DHT22;10602;48.000;9.654;2022-09-28T18:27:44;6.80;99.90
20885;DHT22;10602;48.000;9.654;2022-09-28T18:30:11;6.80;99.90
20885;DHT22;10602;48.000;9.654;2022-09-28T18:32:39;6.90;99.90
20885;DHT22;10602;48.000;9.654;2022-09-28T18:35:07;6.90;99.90
20885;DHT22;10602;48.000;9.654;2022-09-28T18:37:37;6.90;99.90
20885;DHT22;10602;48.000;9.654;2022-09-28T18:40:06;7.00;99.90
20885;DHT22;10602;48.000;9.654;2022-09-28T18:42:53;7.00;99.90
20885;DHT22;10602;48.000;9.654;2022-09-28T18:45:23;7.00;99.90
20885;DHT22;10602;48.000;9.654;2022-09-28T18:47:51;7.00;99.90
20885;DHT22;10602;48.000;9.654;2022-09-28T18:50:19;7.00;99.90
20885;DHT22;10602;48.000;9.654;2022-09-28T18:52:47;7.00;99.90
20885;DHT22;10602;48.000;9.654;2022-09-28T18:55:15;7.00;99.90
20885;DHT22;10602;48.000;9.654;2022-09-28T18:57:42;7.00;99.90
20885;DHT22;10602;48.000;9.654;2022-09-28T19:00:12;7.00;99.90
20885;DHT22;10602;48.000;9.654;2022-09-28T19:02:40;7.00;99.90
20885;DHT22;10602;48.000;9.654;2022-09-28T19:05:08;7.00;99.90
20885;DHT22;10602;48.000;9.654;2022-09-28T19:07:35;7.00;99.90
20885;DHT22;10602;48.000;9.654;2022-09-28T19:10:03;7.00;99.90
20885;DHT22;10602;48.000;9.654;2022-09-28T19:12:31;7.00;99.90
20885;DHT22;10602;48.000;9.654;2022-09-28T19:14:59;7.00;99.90
20885;DHT22;10602;48.000;9.654;2022-09-28T19:17:27;7.00;99.90
20885;DHT22;10602;48.000;9.654;2022-09-28T19:19:56;7.00;99.90
20885;DHT22;10602;48.000;9.654;2022-09-28T19:22:23;7.00;99.90
20885;DHT22;10602;48.000;9.654;2022-09-28T19:24:51;7.00;99.90
20885;DHT22;10602;48.000;9.654;2022-09-28T19:27:18;7.00;99.90
20885;DHT22;10602;48.000;9.654;2022-09-28T19:29:46;7.00;99.90
20885;DHT22;10602;48.000;9.654;2022-09-28T19:32:13;7.00;99.90
20885;DHT22;10602;48.000;9.654;2022-09-28T19:34:42;7.00;99.90
20885;DHT22;10602;48.000;9.654;2022-09-28T19:37:09;7.00;99.90
20885;DHT22;10602;48.000;9.654;2022-09-28T19:39:37;7.10;99.90
20885;DHT22;10602;48.000;9.654;2022-09-28T19:42:05;7.10;99.90
20885;DHT22;10602;48.000;9.654;2022-09-28T19:44:33;7.10;99.90
20885;DHT22;10602;48.000;9.654;2022-09-28T19:47:06;7.10;99.90
20885;DHT22;10602;48.000;9.654;2022-09-28T19:49:37;7.10;99.90
20885;DHT22;10602;48.000;9.654;2022-09-28T19:52:09;7.10;99.90
20885;DHT22;10602;48.000;9.654;2022-09-28T19:54:39;7.10;99.90
20885;DHT22;10602;48.000;9.654;2022-09-28T19:57:09;7.10;99.90
20885;DHT22;10602;48.000;9.654;2022-09-28T19:59:37;7.10;99.90
20885;DHT22;10602;48.000;9.654;2022-09-28T20:02:06;7.10;99.90
20885;DHT22;10602;48.000;9.654;2022-09-28T20:04:35;7.10;99.90
20885;DHT22;10602;48.000;9.654;2022-09-28T20:07:03;7.10;99.90
20885;DHT22;10602;48.000;9.654;2022-09-28T20:09:31;7.10;99.90
20885;DHT22;10602;48.000;9.654;2022-09-28T20:11:59;7.10;99.90
20885;DHT22;10602;48.000;9.654;2022-09-28T20:14:27;7.10;99.90
20885;DHT22;10602;48.000;9.654;2022-09-28T20:16:54;7.00;99.90
20885;DHT22;10602;48.000;9.654;2022-09-28T20:19:22;7.00;99.90
20885;DHT22;10602;48.000;9.654;2022-09-28T20:21:50;7.00;99.90
20885;DHT22;10602;48.000;9.654;2022-09-28T20:24:19;7.00;99.90
20885;DHT22;10602;48.000;9.654;2022-09-28T20:27:09;7.00;99.90
20885;DHT22;10602;48.000;9.654;2022-09-28T20:29:30;7.00;99.90
20885;DHT22;10602;48.000;9.654;2022-09-28T20:31:58;7.00;99.90
20885;DHT22;10602;48.000;9.654;2022-09-28T20:34:29;7.00;99.90
20885;DHT22;10602;48.000;9.654;2022-09-28T20:36:59;7.00;99.90
20885;DHT22;10602;48.000;9.654;2022-09-28T20:39:33;7.00;99.90
20885;DHT22;10602;48.000;9.654;2022-09-28T20:42:11;7.00;99.90
20885;DHT22;10602;48.000;9.654;2022-09-28T20:44:43;7.00;99.90
20885;DHT22;10602;48.000;9.654;2022-09-28T20:49:55;7.00;99.90
20885;DHT22;10602;48.000;9.654;2022-09-28T20:52:39;7.00;99.90
20885;DHT22;10602;48.000;9.654;2022-09-28T21:06:34;7.00;99.90
20885;DHT22;10602;48.000;9.654;2022-09-28T21:08:59;7.00;99.90
20885;DHT22;10602;48.000;9.654;2022-09-28T21:11:29;7.00;99.90
20885;DHT22;10602;48.000;9.654;2022-09-28T21:14:41;7.00;99.90
20885;DHT22;10602;48.000;9.654;2022-09-28T21:16:37;7.10;99.90
20885;DHT22;10602;48.000;9.654;2022-09-28T21:19:10;7.00;99.90
20885;DHT22;10602;48.000;9.654;2022-09-28T21:24:11;7.10;99.90
20885;DHT22;10602;48.000;9.654;2022-09-28T21:29:15;7.10;99.90
20885;DHT22;10602;48.000;9.654;2022-09-28T21:31:45;7.00;99.90
20885;DHT22;10602;48.000;9.654;2022-09-28T21:34:19;7.00;99.90
20885;DHT22;10602;48.000;9.654;2022-09-28T21:36:51;7.00;99.90
20885;DHT22;10602;48.000;9.654;2022-09-28T21:39:23;7.00;99.90
20885;DHT22;10602;48.000;9.654;2022-09-28T21:42:02;7.00;99.90
20885;DHT22;10602;48.000;9.654;2022-09-28T21:44:28;7.00;99.90
20885;DHT22;10602;48.000;9.654;2022-09-28T21:46:59;7.00;99.90
20885;DHT22;10602;48.000;9.654;2022-09-28T21:49:29;7.00;99.90
20885;DHT22;10602;48.000;9.654;2022-09-28T21:52:10;7.00;99.90
20885;DHT22;10602;48.000;9.654;2022-09-28T21:54:38;7.00;99.90
20885;DHT22;10602;48.000;9.654;2022-09-28T21:57:07;7.00;99.90
20885;DHT22;10602;48.000;9.654;2022-09-28T21:59:35;7.00;99.90
20885;DHT22;10602;48.000;9.654;2022-09-28T22:02:02;7.00;99.90
20885;DHT22;10602;48.000;9.654;2022-09-28T22:04:32;7.00;99.90